Time;durP1;ratioP1;P1;durP2;ratioP2;P2;SDS_P1;SDS_P2;PMS_P1;PMS_P2;Temp;Humidity;BMP_temperature;BMP_pressure;BME280_temperature;BME280_humidity;BME280_pressure;Samples;Min_cycle;Max_cycle;Signal;HPM_P1;HPM_P2
2021/06/03 00:02:12;;;;;;;0.40;0.20;;;;;;;18.47;83.70;100400.16;5025244;28;20468;-52
2021/06/03 00:04:39;;;;;;;0.40;0.20;;;;;;;18.47;83.34;100401.03;5025402;28;20479;-52
2021/06/03 00:07:07;;;;;;;0.40;0.20;;;;;;;18.38;84.00;100406.97;5018663;28;20952;-51
2021/06/03 00:09:34;;;;;;;0.40;0.20;;;;;;;18.16;84.29;100403.81;5019054;28;20445;-51
2021/06/03 00:12:01;;;;;;;0.40;0.20;;;;;;;17.93;85.75;100408.66;5025665;28;20473;-51
2021/06/03 00:14:28;;;;;;;0.40;0.20;;;;;;;18.21;83.99;100410.63;5024859;28;20906;-51
2021/06/03 00:16:54;;;;;;;0.50;0.20;;;;;;;18.21;82.86;100418.72;5018533;28;20964;-51
2021/06/03 00:19:21;;;;;;;0.40;0.20;;;;;;;18.24;84.17;100425.75;5018871;28;20491;-51
2021/06/03 00:21:48;;;;;;;0.40;0.20;;;;;;;18.34;81.55;100422.44;5024946;28;20477;-51
2021/06/03 00:24:15;;;;;;;0.40;0.20;;;;;;;18.44;81.90;100425.44;5025543;28;20444;-51
2021/06/03 00:26:42;;;;;;;0.40;0.20;;;;;;;18.54;80.36;100423.97;5024540;28;20449;-51
2021/06/03 00:29:14;;;;;;;0.40;0.20;;;;;;;18.53;81.19;100430.31;5024934;28;20452;-51
2021/06/03 00:31:41;;;;;;;0.40;0.20;;;;;;;18.33;82.02;100441.34;5020062;28;20468;-51
2021/06/03 00:34:08;;;;;;;0.50;0.30;;;;;;;18.44;82.01;100443.44;5018182;28;20973;-51
2021/06/03 00:36:34;;;;;;;0.40;0.20;;;;;;;18.64;80.87;100440.47;5023193;28;20449;-51
2021/06/03 00:39:03;;;;;;;0.50;0.40;;;;;;;18.57;81.49;100445.31;5023604;28;20940;-52
2021/06/03 00:41:30;;;;;;;0.40;0.20;;;;;;;18.31;82.54;100430.69;5021106;28;20511;-51
2021/06/03 00:43:59;;;;;;;0.40;0.20;;;;;;;18.22;83.20;100431.22;5018252;28;20515;-52
2021/06/03 00:46:27;;;;;;;0.40;0.20;;;;;;;17.97;83.64;100429.09;5022099;28;20468;-52
2021/06/03 00:48:54;;;;;;;0.40;0.20;;;;;;;18.26;82.09;100435.47;5031697;28;20453;-51
2021/06/03 00:51:20;;;;;;;20.00;2.00;;;;;;;18.37;82.04;100436.69;5041197;28;20507;-52
2021/06/03 00:53:47;;;;;;;0.50;0.33;;;;;;;18.48;81.44;100440.47;5023956;28;20545;-52
2021/06/03 00:56:14;;;;;;;0.40;0.20;;;;;;;18.18;82.70;100447.63;5025118;28;20459;-51
2021/06/03 00:58:40;;;;;;;0.40;0.20;;;;;;;18.25;82.87;100454.41;5027193;28;20508;-51
2021/06/03 01:01:07;;;;;;;0.40;0.20;;;;;;;18.09;83.61;100443.63;5022654;28;20856;-51
2021/06/03 01:03:34;;;;;;;9.10;2.20;;;;;;;18.05;83.70;100442.94;5017858;28;20566;-52
2021/06/03 01:06:06;;;;;;;0.40;0.20;;;;;;;18.04;83.58;100451.09;5020730;28;20941;-52
2021/06/03 01:08:43;;;;;;;0.40;0.20;;;;;;;18.29;81.74;100445.19;5024986;28;20448;-52
2021/06/03 01:11:21;;;;;;;0.40;0.20;;;;;;;18.10;83.54;100441.84;5024373;28;20991;-51
2021/06/03 01:13:51;;;;;;;0.40;0.20;;;;;;;18.15;83.35;100446.00;5011348;28;20495;-51
2021/06/03 01:16:18;;;;;;;0.40;0.20;;;;;;;17.99;83.77;100450.50;5025058;28;20483;-52
2021/06/03 01:18:46;;;;;;;0.40;0.20;;;;;;;17.97;84.08;100447.91;5019490;28;20452;-51
2021/06/03 01:21:23;;;;;;;0.40;0.20;;;;;;;17.96;84.04;100446.19;5017434;28;20694;-51
2021/06/03 01:24:14;;;;;;;0.40;0.20;;;;;;;18.11;84.11;100441.75;5030990;28;20471;-51
2021/06/03 01:26:42;;;;;;;0.40;0.30;;;;;;;18.05;84.09;100450.16;5011619;28;20456;-52
2021/06/03 01:29:09;;;;;;;0.40;0.20;;;;;;;18.16;83.66;100444.16;5024930;28;20451;-52
2021/06/03 01:31:36;;;;;;;0.40;0.20;;;;;;;17.83;84.94;100450.50;5018763;28;20501;-51
2021/06/03 01:34:03;;;;;;;0.40;0.20;;;;;;;17.80;85.18;100444.41;5018017;28;21028;-51
2021/06/03 01:36:31;;;;;;;0.50;0.37;;;;;;;17.98;83.80;100449.66;5024257;28;20452;-51
2021/06/03 01:39:00;;;;;;;0.40;0.20;;;;;;;17.85;85.04;100453.97;5027696;28;20452;-51
2021/06/03 01:41:28;;;;;;;0.40;0.20;;;;;;;17.63;86.60;100450.69;5022903;28;20467;-52
2021/06/03 01:43:54;;;;;;;0.40;0.20;;;;;;;17.76;86.10;100449.09;5021005;28;20444;-51
2021/06/03 01:46:21;;;;;;;0.40;0.27;;;;;;;17.36;87.80;100458.44;5026536;28;20845;-51
2021/06/03 01:48:49;;;;;;;0.40;0.20;;;;;;;17.22;89.43;100452.94;5031955;28;20503;-51
2021/06/03 01:51:17;;;;;;;0.40;0.20;;;;;;;17.60;87.39;100450.88;5043334;28;20533;-51
2021/06/03 01:53:44;;;;;;;0.40;0.30;;;;;;;17.59;86.67;100458.06;5027360;28;20534;-51
2021/06/03 01:56:13;;;;;;;0.40;0.20;;;;;;;17.52;87.18;100455.78;5028528;28;20455;-50
2021/06/03 01:58:40;;;;;;;0.40;0.20;;;;;;;17.49;87.33;100464.91;5020625;28;20553;-50
2021/06/03 02:01:07;;;;;;;0.40;0.20;;;;;;;17.37;87.25;100468.25;5023517;28;20891;-51
2021/06/03 02:03:35;;;;;;;0.40;0.20;;;;;;;17.37;88.08;100468.25;5028040;28;20450;-50
2021/06/03 02:06:04;;;;;;;0.40;0.20;;;;;;;17.49;87.17;100478.34;5025618;28;20451;-51
2021/06/03 02:08:31;;;;;;;0.40;0.20;;;;;;;17.40;87.53;100474.31;5029834;28;20453;-50
2021/06/03 02:10:59;;;;;;;0.40;0.20;;;;;;;17.09;88.70;100476.91;5025871;28;20474;-50
2021/06/03 02:13:34;;;;;;;0.40;0.20;;;;;;;17.18;88.64;100482.66;5020151;28;20912;-50
2021/06/03 02:16:22;;;;;;;0.50;0.50;;;;;;;16.98;88.85;100477.47;5021534;28;20518;-51
2021/06/03 02:19:06;;;;;;;0.40;0.30;;;;;;;16.89;89.57;100483.31;5024147;28;20448;-50
2021/06/03 02:21:35;;;;;;;0.40;0.20;;;;;;;16.86;89.71;100488.84;5021269;28;20468;-50
2021/06/03 02:24:04;;;;;;;0.40;0.30;;;;;;;17.06;88.87;100487.81;5034095;28;20478;-50
2021/06/03 02:26:39;;;;;;;0.40;0.20;;;;;;;17.06;88.63;100487.81;5027823;28;20886;-50
2021/06/03 02:29:06;;;;;;;0.40;0.20;;;;;;;16.91;89.66;100485.94;5026854;28;20440;-51
2021/06/03 02:31:35;;;;;;;0.40;0.20;;;;;;;16.90;89.55;100484.19;5021326;28;20499;-50
2021/06/03 02:34:04;;;;;;;0.40;0.20;;;;;;;16.84;90.64;100480.84;5020353;28;21085;-50
2021/06/03 02:36:31;;;;;;;0.40;0.20;;;;;;;16.72;91.19;100480.59;5025574;28;20453;-50
2021/06/03 02:38:59;;;;;;;0.40;0.20;;;;;;;16.50;91.64;100489.72;5027182;28;20452;-50
2021/06/03 02:41:26;;;;;;;0.40;0.30;;;;;;;16.42;92.83;100488.34;5022362;28;20860;-50
2021/06/03 02:43:53;;;;;;;0.40;0.20;;;;;;;16.40;93.71;100484.88;5020011;28;20503;-50
2021/06/03 02:46:22;;;;;;;0.40;0.20;;;;;;;16.53;93.12;100480.66;5025243;28;20643;-50
2021/06/03 02:48:49;;;;;;;0.40;0.20;;;;;;;16.67;92.17;100488.91;5032008;28;21081;-50
2021/06/03 02:51:16;;;;;;;0.40;0.30;;;;;;;16.69;92.34;100486.13;5043352;28;20510;-50
2021/06/03 02:53:46;;;;;;;0.40;0.20;;;;;;;16.64;92.31;100480.97;5026495;28;20610;-51
2021/06/03 02:56:13;;;;;;;0.40;0.20;;;;;;;16.34;94.22;100480.69;5027790;28;20513;-50
2021/06/03 02:58:41;;;;;;;0.40;0.20;;;;;;;16.41;94.17;100487.50;5029656;28;20522;-50
2021/06/03 03:01:08;;;;;;;0.60;0.60;;;;;;;16.65;91.76;100488.09;5023815;28;20478;-50
2021/06/03 03:03:34;;;;;;;0.40;0.20;;;;;;;16.61;92.95;100489.19;5029343;28;20498;-50
2021/06/03 03:06:01;;;;;;;0.40;0.20;;;;;;;16.40;94.39;100484.88;5024369;28;20510;-51
2021/06/03 03:08:27;;;;;;;0.40;0.30;;;;;;;16.40;94.96;100485.75;5020250;28;20456;-50
2021/06/03 03:10:57;;;;;;;0.40;0.20;;;;;;;16.22;96.96;100481.31;5022531;28;20472;-51
2021/06/03 03:13:24;;;;;;;0.40;0.20;;;;;;;16.43;96.74;100476.69;5026237;28;20455;-51
2021/06/03 03:15:51;;;;;;;0.40;0.20;;;;;;;16.39;96.97;100483.16;5024883;28;20455;-51
2021/06/03 03:18:17;;;;;;;0.40;0.20;;;;;;;16.55;96.35;100489.47;5014674;28;20454;-51
2021/06/03 03:20:44;;;;;;;0.40;0.20;;;;;;;16.61;95.73;100491.00;5025139;28;20519;-51
2021/06/03 03:23:12;;;;;;;0.40;0.20;;;;;;;16.59;95.82;100485.72;5019445;28;20953;-51
2021/06/03 03:25:40;;;;;;;0.40;0.20;;;;;;;16.73;94.98;100493.97;5021083;28;20506;-51
2021/06/03 03:28:08;;;;;;;0.40;0.20;;;;;;;16.59;96.22;100502.69;5018414;28;20928;-50
2021/06/03 03:30:40;;;;;;;1.50;1.40;;;;;;;16.72;95.63;100503.00;5019717;28;20480;-51
2021/06/03 03:33:09;;;;;;;0.40;0.20;;;;;;;16.86;94.81;100504.97;5024991;28;20563;-50
2021/06/03 03:35:36;;;;;;;0.40;0.20;;;;;;;16.59;96.17;100504.50;5025956;28;20488;-51
2021/06/03 03:38:04;;;;;;;0.40;0.20;;;;;;;16.64;96.79;100501.59;5019819;28;20913;-50
2021/06/03 03:40:31;;;;;;;0.40;0.20;;;;;;;16.80;96.35;100502.56;5019232;28;20480;-51
2021/06/03 03:42:58;;;;;;;0.40;0.20;;;;;;;16.94;94.76;100512.63;5024874;28;20448;-50
2021/06/03 03:45:27;;;;;;;0.40;0.20;;;;;;;16.71;97.16;100505.72;5025829;28;20518;-50
2021/06/03 03:47:54;;;;;;;0.50;0.30;;;;;;;16.93;95.94;100510.88;5020836;28;20953;-50
2021/06/03 03:50:22;;;;;;;0.57;0.57;;;;;;;16.78;96.93;100517.91;5043120;28;20800;-51
2021/06/03 03:52:49;;;;;;;0.40;0.20;;;;;;;16.93;96.63;100514.44;5021411;28;21121;-50
2021/06/03 03:55:16;;;;;;;1.23;1.07;;;;;;;16.60;98.76;100516.97;5029455;28;21023;-50
2021/06/03 03:57:45;;;;;;;0.40;0.20;;;;;;;16.85;98.67;100520.19;5028703;28;20459;-50
2021/06/03 04:00:24;;;;;;;0.40;0.20;;;;;;;17.04;97.70;100524.63;5018148;28;20591;-51
2021/06/03 04:02:51;;;;;;;0.40;0.20;;;;;;;17.14;97.18;100517.84;5020870;28;20452;-50
2021/06/03 04:05:18;;;;;;;0.93;0.93;;;;;;;17.05;97.33;100529.06;5025811;28;20579;-50
2021/06/03 04:07:45;;;;;;;0.77;0.77;;;;;;;16.94;97.94;100529.59;5024097;28;20447;-51
2021/06/03 04:10:15;;;;;;;0.40;0.20;;;;;;;17.06;97.15;100525.41;5018573;28;20498;-51
2021/06/03 04:12:42;;;;;;;0.40;0.30;;;;;;;17.26;96.51;100524.38;5020501;28;20811;-51
2021/06/03 04:15:11;;;;;;;0.40;0.20;;;;;;;17.23;96.41;100528.09;5031125;28;20495;-50
2021/06/03 04:17:38;;;;;;;0.40;0.20;;;;;;;17.29;96.17;100516.16;5019550;28;20510;-51
2021/06/03 04:20:16;;;;;;;0.40;0.20;;;;;;;17.22;96.67;100525.50;5025547;28;20505;-50
2021/06/03 04:22:43;;;;;;;0.40;0.20;;;;;;;17.39;96.29;100520.09;5026594;28;20498;-51
2021/06/03 04:25:11;;;;;;;0.40;0.20;;;;;;;17.34;96.41;100531.09;5024381;28;20449;-50
2021/06/03 04:27:38;;;;;;;0.40;0.20;;;;;;;17.51;96.37;100532.00;5025158;28;20457;-50
2021/06/03 04:30:09;;;;;;;0.40;0.30;;;;;;;17.36;96.92;100528.31;5012005;28;20543;-50
2021/06/03 04:32:36;;;;;;;0.40;0.30;;;;;;;17.40;96.94;100530.75;5025857;28;20443;-50
2021/06/03 04:35:04;;;;;;;0.40;0.20;;;;;;;17.41;97.46;100539.72;5021480;28;20499;-50
2021/06/03 04:37:31;;;;;;;0.40;0.20;;;;;;;17.60;96.45;100528.84;5019144;28;20487;-51
2021/06/03 04:39:57;;;;;;;3.03;0.87;;;;;;;17.43;97.73;100533.31;5022836;28;20449;-50
2021/06/03 04:42:24;;;;;;;0.50;0.40;;;;;;;17.45;98.18;100541.28;5024757;28;20894;-51
2021/06/03 04:44:51;;;;;;;0.40;0.20;;;;;;;17.61;98.17;100546.72;5011637;28;20820;-51
2021/06/03 04:47:18;;;;;;;0.40;0.20;;;;;;;17.69;97.51;100555.28;5014933;28;20463;-50
2021/06/03 04:49:44;;;;;;;0.40;0.20;;;;;;;17.53;99.38;100560.53;5041544;28;20489;-50
2021/06/03 04:52:28;;;;;;;0.40;0.20;;;;;;;17.52;100.00;100558.81;5042974;22;20503;-54
2021/06/03 04:55:23;;;;;;;0.40;0.20;;;;;;;17.60;100.00;100558.41;5011488;28;20496;-54
2021/06/03 04:57:52;;;;;;;0.40;0.20;;;;;;;17.57;100.00;100555.91;5007051;28;20473;-54
2021/06/03 05:00:26;;;;;;;0.40;0.20;;;;;;;17.59;100.00;100565.59;4997875;28;20448;-54
2021/06/03 05:02:53;;;;;;;0.40;0.20;;;;;;;17.64;100.00;100565.34;4980958;28;20488;-54
2021/06/03 05:05:20;;;;;;;0.40;0.20;;;;;;;17.79;100.00;100561.88;4985392;28;20450;-54
2021/06/03 05:07:47;;;;;;;0.40;0.20;;;;;;;17.95;100.00;100572.66;4983761;28;20510;-54
2021/06/03 05:10:16;;;;;;;0.40;0.20;;;;;;;18.34;99.46;100564.22;4979066;28;20453;-54
2021/06/03 05:12:43;;;;;;;0.40;0.20;;;;;;;18.32;98.11;100563.44;4982608;28;20591;-54
2021/06/03 05:15:11;;;;;;;0.40;0.20;;;;;;;18.35;97.97;100579.41;4989034;28;20498;-54
2021/06/03 05:17:38;;;;;;;0.40;0.20;;;;;;;18.78;95.21;100577.03;4988333;28;20453;-54
2021/06/03 05:20:07;;;;;;;0.40;0.20;;;;;;;18.50;95.97;100581.25;4982777;28;20453;-54
2021/06/03 05:22:36;;;;;;;0.40;0.20;;;;;;;18.52;95.92;100573.97;4983510;28;20474;-54
2021/06/03 05:25:05;;;;;;;0.50;0.40;;;;;;;18.54;95.37;100585.50;4983580;28;20503;-54
2021/06/03 05:27:32;;;;;;;0.40;0.20;;;;;;;18.57;95.42;100584.44;4982183;28;20529;-54
2021/06/03 05:29:59;;;;;;;0.40;0.20;;;;;;;18.58;96.34;100588.88;4988403;28;20454;-54
2021/06/03 05:32:25;;;;;;;0.40;0.20;;;;;;;18.56;95.10;100590.78;4989021;28;20477;-54
2021/06/03 05:34:52;;;;;;;0.40;0.20;;;;;;;18.58;95.95;100597.81;4981893;28;20489;-54
2021/06/03 05:37:19;;;;;;;0.40;0.20;;;;;;;18.52;95.21;100600.88;4982211;28;20493;-54
2021/06/03 05:39:45;;;;;;;0.50;0.30;;;;;;;18.46;96.53;100598.50;4987657;28;20454;-54
2021/06/03 05:42:12;;;;;;;0.40;0.20;;;;;;;18.75;94.89;100604.09;4988596;28;20582;-54
2021/06/03 05:44:39;;;;;;;0.43;0.27;;;;;;;18.59;94.57;100610.34;4983242;28;20520;-54
2021/06/03 05:47:05;;;;;;;0.40;0.20;;;;;;;18.59;95.53;100604.06;4981942;28;20510;-54
2021/06/03 05:49:32;;;;;;;0.50;0.30;;;;;;;18.70;95.16;100606.19;5003676;28;20484;-54
2021/06/03 05:52:02;;;;;;;0.40;0.20;;;;;;;18.72;94.27;100602.47;4996892;28;20516;-54
2021/06/03 05:54:31;;;;;;;0.40;0.20;;;;;;;18.89;93.37;100604.19;4990871;28;20489;-54
2021/06/03 05:56:58;;;;;;;0.40;0.20;;;;;;;18.92;91.84;100604.03;4989064;28;20457;-54
2021/06/03 05:59:25;;;;;;;0.40;0.20;;;;;;;19.07;91.66;100605.81;4985258;28;20451;-54
2021/06/03 06:01:58;;;;;;;0.40;0.20;;;;;;;19.34;91.70;100606.00;4988515;28;20525;-54
2021/06/03 06:06:51;;;;;;;0.40;0.20;;;;;;;19.43;90.79;100615.34;4981593;28;20523;-54
2021/06/03 06:09:19;;;;;;;0.40;0.20;;;;;;;19.34;91.57;100615.94;4984006;28;20505;-53
2021/06/03 06:11:46;;;;;;;0.40;0.20;;;;;;;19.46;91.61;100621.47;4988205;28;20521;-53
2021/06/03 06:14:13;;;;;;;0.40;0.20;;;;;;;19.75;89.93;100625.13;4985627;28;21027;-53
2021/06/03 06:16:40;;;;;;;0.50;0.30;;;;;;;19.89;89.47;100620.69;4981454;28;20453;-53
2021/06/03 06:19:09;;;;;;;0.40;0.20;;;;;;;20.13;87.21;100632.63;5001482;28;20456;-53
2021/06/03 06:21:36;;;;;;;0.40;0.20;;;;;;;20.58;85.20;100625.34;4981538;28;20623;-53
2021/06/03 06:24:04;;;;;;;0.60;0.60;;;;;;;21.03;83.18;100623.28;4994269;28;20815;-53
2021/06/03 06:26:33;;;;;;;0.40;0.20;;;;;;;21.38;81.46;100621.81;4981809;28;20961;-54
2021/06/03 06:29:00;;;;;;;0.80;0.80;;;;;;;21.61;80.31;100625.63;4981855;28;20542;-53
2021/06/03 06:31:26;;;;;;;0.40;0.20;;;;;;;21.26;80.90;100634.31;4987547;28;20910;-53
2021/06/03 06:33:53;;;;;;;0.40;0.20;;;;;;;21.52;79.86;100624.44;4987230;28;20824;-54
2021/06/03 06:36:20;;;;;;;0.47;0.20;;;;;;;21.79;78.79;100628.88;4980975;28;20485;-54
2021/06/03 06:38:46;;;;;;;0.50;0.30;;;;;;;21.80;79.39;100628.81;4981662;28;20493;-54
2021/06/03 06:41:13;;;;;;;0.40;0.20;;;;;;;21.77;78.89;100629.00;4987600;28;20566;-54
2021/06/03 06:43:40;;;;;;;0.40;0.20;;;;;;;21.54;79.59;100636.00;4987483;28;20469;-53
2021/06/03 06:46:07;;;;;;;0.40;0.20;;;;;;;21.88;79.35;100634.53;4987619;28;20454;-53
2021/06/03 06:48:34;;;;;;;0.40;0.20;;;;;;;21.87;79.21;100642.75;4987834;28;20466;-53
2021/06/03 06:51:01;;;;;;;0.40;0.20;;;;;;;21.85;79.19;100647.41;5006204;28;20561;-54
2021/06/03 06:53:27;;;;;;;0.50;0.30;;;;;;;22.03;77.77;100643.41;4986127;28;20457;-54
2021/06/03 06:55:55;;;;;;;0.50;0.33;;;;;;;21.95;78.24;100650.34;4987023;28;20552;-53
2021/06/03 06:58:26;;;;;;;0.47;0.20;;;;;;;21.81;79.06;100646.78;4992636;28;20540;-54
2021/06/03 07:00:53;;;;;;;0.50;0.40;;;;;;;21.89;78.74;100651.63;4982279;28;20487;-54
2021/06/03 07:03:20;;;;;;;0.40;0.20;;;;;;;22.08;78.54;100652.13;4980428;28;20462;-53
2021/06/03 07:05:46;;;;;;;0.40;0.20;;;;;;;21.62;79.71;100654.41;4985806;28;20487;-53
2021/06/03 07:08:15;;;;;;;0.50;0.20;;;;;;;21.77;79.64;100649.78;4987409;28;20954;-53
2021/06/03 07:10:42;;;;;;;0.50;0.20;;;;;;;21.87;79.84;100657.16;4982441;28;20980;-53
2021/06/03 07:13:09;;;;;;;0.40;0.30;;;;;;;22.08;78.86;100645.84;4981328;28;20509;-53
2021/06/03 07:15:36;;;;;;;0.40;0.20;;;;;;;22.14;80.09;100651.69;4983416;28;20549;-53
2021/06/03 07:18:02;;;;;;;0.40;0.20;;;;;;;21.81;80.05;100659.44;4986200;28;20541;-54
2021/06/03 07:20:29;;;;;;;0.40;0.20;;;;;;;22.09;79.24;100642.16;4982635;28;20977;-54
2021/06/03 07:23:04;;;;;;;0.40;0.20;;;;;;;22.27;78.48;100646.25;4978006;28;20951;-54
2021/06/03 07:25:35;;;;;;;0.40;0.20;;;;;;;22.01;77.77;100648.06;4983969;28;20456;-54
2021/06/03 07:28:03;;;;;;;1.13;1.03;;;;;;;22.10;78.33;100644.75;4980128;28;20472;-54
2021/06/03 07:30:29;;;;;;;0.50;0.40;;;;;;;22.04;77.96;100647.84;4982053;28;20500;-54
2021/06/03 07:32:57;;;;;;;0.43;0.30;;;;;;;22.56;76.08;100646.84;4986673;28;20450;-54
2021/06/03 07:35:27;;;;;;;0.40;0.20;;;;;;;22.91;75.95;100647.03;4983824;28;20525;-54
2021/06/03 07:37:54;;;;;;;0.40;0.20;;;;;;;22.80;75.61;100648.75;4980040;28;20445;-54
2021/06/03 07:40:26;;;;;;;0.50;0.20;;;;;;;22.93;75.12;100644.19;4981477;28;20546;-54
2021/06/03 07:42:53;;;;;;;0.50;0.30;;;;;;;23.34;74.75;100644.66;4986687;28;20451;-54
2021/06/03 07:45:23;;;;;;;0.50;0.30;;;;;;;22.62;75.80;100645.56;4985916;28;20504;-53
2021/06/03 07:47:51;;;;;;;0.60;0.40;;;;;;;22.66;76.21;100644.34;4980393;28;20493;-54
2021/06/03 07:50:19;;;;;;;0.50;0.33;;;;;;;22.85;75.80;100642.03;5006136;28;20488;-54
2021/06/03 07:52:46;;;;;;;0.43;0.30;;;;;;;22.95;75.68;100634.97;4984601;28;20482;-54
2021/06/03 07:55:14;;;;;;;4.93;0.70;;;;;;;23.60;73.27;100639.97;4975172;28;20486;-54
2021/06/03 07:57:43;;;;;;;0.50;0.43;;;;;;;23.64;72.79;100644.19;4993433;28;20469;-54
2021/06/03 08:00:12;;;;;;;0.50;0.20;;;;;;;24.22;70.84;100644.16;4980140;28;20465;-54
2021/06/03 08:02:42;;;;;;;0.50;0.30;;;;;;;24.77;70.38;100642.44;4983314;28;20474;-54
2021/06/03 08:05:11;;;;;;;0.50;0.20;;;;;;;24.04;72.49;100641.06;4986290;28;20513;-54
2021/06/03 08:07:38;;;;;;;0.47;0.20;;;;;;;23.66;73.47;100646.78;4983766;28;20449;-54
2021/06/03 08:10:07;;;;;;;0.70;0.70;;;;;;;23.81;73.55;100647.44;4979397;28;20458;-54
2021/06/03 08:12:34;;;;;;;0.40;0.20;;;;;;;24.17;72.19;100644.53;4981430;28;20521;-54
2021/06/03 08:15:02;;;;;;;0.50;0.30;;;;;;;24.58;72.33;100642.22;4986066;28;20576;-54
2021/06/03 08:17:29;;;;;;;5.90;1.07;;;;;;;24.20;73.07;100648.84;4984510;28;20453;-54
2021/06/03 08:19:56;;;;;;;0.50;0.20;;;;;;;24.08;73.90;100645.25;4979234;28;20449;-54
2021/06/03 08:22:23;;;;;;;0.50;0.30;;;;;;;24.61;72.48;100645.56;4981142;28;20561;-54
2021/06/03 08:24:50;;;;;;;0.40;0.20;;;;;;;24.47;72.97;100643.94;4977882;28;20454;-54
2021/06/03 08:27:16;;;;;;;0.50;0.30;;;;;;;24.59;71.73;100641.22;4981480;28;20451;-54
2021/06/03 08:29:43;;;;;;;0.50;0.20;;;;;;;24.58;71.37;100642.22;4985856;28;20458;-54
2021/06/03 08:32:10;;;;;;;0.50;0.30;;;;;;;25.09;70.90;100646.13;4984208;28;20473;-54
2021/06/03 08:34:37;;;;;;;0.50;0.20;;;;;;;25.65;69.40;100636.84;4978939;28;20937;-54
2021/06/03 08:37:03;;;;;;;0.50;0.20;;;;;;;25.79;68.50;100639.28;4980644;28;20522;-55
2021/06/03 08:39:30;;;;;;;0.50;0.20;;;;;;;25.69;68.39;100643.78;4985878;28;20982;-54
2021/06/03 08:41:58;;;;;;;1.07;0.97;;;;;;;25.54;70.01;100647.81;4983907;28;20889;-55
2021/06/03 08:44:28;;;;;;;0.50;0.30;;;;;;;25.28;69.75;100645.44;4979027;28;20990;-55
2021/06/03 08:46:56;;;;;;;0.50;0.30;;;;;;;25.37;69.82;100650.09;4979888;28;20443;-55
2021/06/03 08:49:23;;;;;;;0.50;0.27;;;;;;;25.36;68.87;100647.53;4998705;28;20452;-54
2021/06/03 08:51:53;;;;;;;0.50;0.30;;;;;;;25.28;68.93;100642.72;4996957;28;20536;-54
2021/06/03 08:54:20;;;;;;;0.80;0.67;;;;;;;24.88;70.52;100647.84;4973181;28;20458;-55
2021/06/03 08:56:47;;;;;;;0.50;0.20;;;;;;;24.90;70.58;100643.16;4986952;28;20493;-55
2021/06/03 08:59:14;;;;;;;1.67;1.07;;;;;;;25.61;70.09;100638.09;4984135;28;20450;-55
2021/06/03 09:01:41;;;;;;;0.50;0.30;;;;;;;25.85;68.06;100635.16;4985048;28;20472;-55
2021/06/03 09:04:09;;;;;;;0.50;0.30;;;;;;;25.25;69.40;100639.38;4980455;28;20524;-55
2021/06/03 09:06:36;;;;;;;0.40;0.30;;;;;;;25.63;68.99;100625.22;4978944;28;20446;-55
2021/06/03 09:09:05;;;;;;;0.50;0.30;;;;;;;25.66;68.17;100625.84;4983303;28;20457;-55
2021/06/03 09:11:33;;;;;;;0.50;0.20;;;;;;;26.35;65.29;100632.56;4985210;28;20986;-55
2021/06/03 09:14:05;;;;;;;0.50;0.40;;;;;;;26.18;65.99;100632.22;4981605;28;20544;-55
2021/06/03 09:16:37;;;;;;;0.50;0.40;;;;;;;26.55;63.76;100632.53;4988264;28;20645;-55
2021/06/03 09:19:05;;;;;;;0.50;0.40;;;;;;;26.55;63.69;100629.81;4983544;28;20536;-55
2021/06/03 09:21:36;;;;;;;0.70;0.50;;;;;;;27.25;62.71;100638.88;4978585;28;20542;-55
2021/06/03 09:24:06;;;;;;;0.50;0.20;;;;;;;27.77;60.21;100639.50;4979124;28;20447;-55
2021/06/03 09:26:54;;;;;;;0.50;0.23;;;;;;;27.86;60.82;100638.63;4985091;28;20871;-55
2021/06/03 09:29:22;;;;;;;2.97;2.00;;;;;;;27.11;61.89;100631.97;4984403;28;20449;-55
2021/06/03 09:31:50;;;;;;;0.70;0.67;;;;;;;26.77;63.30;100639.66;4979429;28;20488;-55
2021/06/03 09:34:17;;;;;;;0.50;0.30;;;;;;;26.84;62.66;100640.78;4978647;28;20457;-55
2021/06/03 09:36:51;;;;;;;0.50;0.30;;;;;;;27.25;61.26;100643.47;4982661;28;20522;-55
2021/06/03 09:39:17;;;;;;;0.50;0.30;;;;;;;27.02;62.27;100637.44;4984228;28;20481;-55
2021/06/03 09:41:49;;;;;;;0.50;0.30;;;;;;;27.19;61.59;100639.47;4982980;28;20473;-55
2021/06/03 09:44:25;;;;;;;13.00;1.03;;;;;;;27.21;61.74;100639.31;4978343;28;20914;-58
2021/06/03 09:47:08;;;;;;;0.50;0.30;;;;;;;27.73;60.10;100633.47;4979675;28;20516;-61
2021/06/03 09:49:39;;;;;;;0.50;0.40;;;;;;;27.36;61.22;100636.03;4990086;28;20467;-55
2021/06/03 09:52:06;;;;;;;0.63;0.47;;;;;;;28.23;60.46;100635.06;4992025;28;20521;-55
2021/06/03 09:54:33;;;;;;;0.50;0.33;;;;;;;28.12;58.51;100638.00;4974030;28;20537;-55
2021/06/03 09:57:09;;;;;;;0.50;0.30;;;;;;;28.82;57.07;100634.69;4988083;28;20866;-55
2021/06/03 09:59:46;;;;;;;0.60;0.50;;;;;;;29.03;56.19;100630.81;4982642;28;20972;-55
2021/06/03 10:02:15;;;;;;;0.50;0.30;;;;;;;28.51;57.72;100634.13;4988517;28;20470;-55
2021/06/03 10:04:46;;;;;;;0.67;0.50;;;;;;;27.35;59.92;100628.84;4988330;28;20462;-55
2021/06/03 10:07:16;;;;;;;0.50;0.30;;;;;;;28.02;59.63;100625.19;4988180;28;20500;-55
2021/06/03 10:09:48;;;;;;;0.50;0.30;;;;;;;27.67;60.65;100625.81;4988440;28;20453;-55
2021/06/03 10:12:23;;;;;;;0.50;0.30;;;;;;;27.68;60.72;100621.22;4983698;28;20535;-55
2021/06/03 10:14:56;;;;;;;0.50;0.20;;;;;;;27.71;59.93;100623.69;4981612;28;20499;-55
2021/06/03 10:17:32;;;;;;;0.50;0.30;;;;;;;27.44;60.89;100619.78;4983829;28;20509;-55
2021/06/03 10:20:06;;;;;;;0.50;0.30;;;;;;;27.61;60.52;100620.94;4988544;28;20454;-55
2021/06/03 10:22:36;;;;;;;0.50;0.30;;;;;;;28.04;59.04;100625.91;4988209;28;20448;-55
2021/06/03 10:25:27;;;;;;;0.50;0.30;;;;;;;27.85;58.84;100611.44;4982393;28;20547;-55
2021/06/03 10:27:55;;;;;;;0.93;0.47;;;;;;;28.04;59.07;100616.84;4972828;28;20484;-55
2021/06/03 10:30:26;;;;;;;0.50;0.50;;;;;;;28.02;59.39;100619.72;4993587;28;20838;-55
2021/06/03 10:32:56;;;;;;;0.50;0.40;;;;;;;27.93;58.43;100615.13;4994061;28;20814;-55
2021/06/03 10:35:30;;;;;;;0.50;0.30;;;;;;;26.74;61.92;100609.91;4981981;28;20458;-55
2021/06/03 10:37:58;;;;;;;1.33;1.23;;;;;;;27.06;62.24;100614.31;4980745;28;20568;-55
2021/06/03 10:40:36;;;;;;;0.50;0.30;;;;;;;27.33;60.83;100609.00;4979824;28;20454;-55
2021/06/03 10:43:05;;;;;;;0.50;0.30;;;;;;;26.78;63.01;100614.09;4985830;28;20577;-55
2021/06/03 10:45:35;;;;;;;1.00;1.00;;;;;;;27.29;60.70;100607.59;4987185;28;20453;-55
2021/06/03 10:48:02;;;;;;;0.60;0.40;;;;;;;27.59;59.10;100608.44;4984320;28;20464;-55
2021/06/03 10:50:49;;;;;;;0.50;0.30;;;;;;;27.55;60.15;100612.44;5006584;28;20461;-55
2021/06/03 10:53:22;;;;;;;0.50;0.30;;;;;;;27.97;59.14;100615.72;5042379;23;20553;-51
2021/06/03 10:55:51;;;;;;;0.50;0.30;;;;;;;28.16;58.61;100610.19;5027999;28;20862;-53
2021/06/03 10:58:30;;;;;;;0.50;0.30;;;;;;;28.24;56.81;100618.53;5033474;28;20467;-53
2021/06/03 11:01:04;;;;;;;0.60;0.60;;;;;;;27.99;58.63;100611.84;5021599;28;20944;-52
2021/06/03 11:03:38;;;;;;;0.50;0.30;;;;;;;28.33;57.72;100605.84;5001031;28;21000;-52
2021/06/03 11:06:11;;;;;;;0.60;0.50;;;;;;;28.62;58.52;100605.69;5004183;28;20925;-53
2021/06/03 11:08:41;;;;;;;0.50;0.27;;;;;;;27.34;64.32;100599.81;5008072;28;20452;-52
2021/06/03 11:11:08;;;;;;;0.50;0.40;;;;;;;26.90;63.76;100606.66;5006061;28;20449;-52
2021/06/03 11:13:36;;;;;;;0.50;0.30;;;;;;;27.47;62.08;100606.84;5000843;28;20523;-53
2021/06/03 11:16:06;;;;;;;0.50;0.40;;;;;;;26.44;66.07;100605.34;5001571;28;20569;-53
2021/06/03 11:19:04;;;;;;;0.80;0.80;;;;;;;27.14;62.86;100606.28;5007462;28;20454;-53
2021/06/03 11:21:37;;;;;;;0.50;0.30;;;;;;;27.13;62.87;100599.94;5006369;28;20612;-52
2021/06/03 11:24:07;;;;;;;0.50;0.20;;;;;;;27.18;61.96;100602.25;4994578;28;20441;-52
2021/06/03 11:26:37;;;;;;;0.50;0.20;;;;;;;27.01;62.76;100603.84;5006631;28;20926;-52
2021/06/03 11:29:30;;;;;;;0.77;0.60;;;;;;;27.42;61.73;100596.38;5004774;28;20449;-52
2021/06/03 11:32:05;;;;;;;0.50;0.30;;;;;;;27.50;59.78;100599.22;5003199;28;20466;-52
2021/06/03 11:34:38;;;;;;;0.40;0.20;;;;;;;26.80;63.19;100598.44;5006614;28;20968;-53
2021/06/03 11:37:14;;;;;;;0.50;0.30;;;;;;;26.43;64.96;100589.13;5005436;28;20499;-51